Time;durP1;ratioP1;P1;durP2;ratioP2;P2;SDS_P1;SDS_P2;PMS_P1;PMS_P2;Temp;Humidity;BMP_temperature;BMP_pressure;BME280_temperature;BME280_humidity;BME280_pressure;Samples;Min_cycle;Max_cycle;Signal;HPM_P1;HPM_P2
2023/03/21 00:00:16;;;;;;;9.73;6.18;;;;;;;;;;5283001;28;20032;-70
2023/03/21 00:02:47;;;;;;;9.25;6.15;;;;;;;;;;5282977;28;20467;-71
2023/03/21 00:05:19;;;;;;;11.00;6.25;;;;;;;;;;5283147;28;20036;-71
2023/03/21 00:07:50;;;;;;;9.88;5.70;;;;;;;;;;5283314;28;20262;-70
2023/03/21 00:10:22;;;;;;;8.63;5.45;;;;;;;;;;5283273;28;20031;-71
2023/03/21 00:12:57;;;;;;;7.63;6.20;;;;;;;;;;5282474;28;20013;-70
2023/03/21 00:15:28;;;;;;;10.20;5.38;;;;;;;;;;5283010;28;20133;-70
2023/03/21 00:18:03;;;;;;;7.10;4.95;;;;;;;;;;5283413;28;20459;-70
2023/03/21 00:20:36;;;;;;;10.93;6.68;;;;;;;;;;5281829;28;20443;-69
2023/03/21 00:23:07;;;;;;;8.55;5.82;;;;;;;;;;5283387;28;20016;-70
2023/03/21 00:25:38;;;;;;;7.88;5.50;;;;;;;;;;5282755;28;20028;-70
2023/03/21 00:28:10;;;;;;;11.00;5.05;;;;;;;;;;5282543;28;20270;-70
2023/03/21 00:30:41;;;;;;;6.88;4.55;;;;;;;;;;5282484;28;20024;-70
2023/03/21 00:33:12;;;;;;;8.65;4.32;;;;;;;;;;5282425;28;20074;-70
2023/03/21 00:35:46;;;;;;;8.07;5.50;;;;;;;;;;5282745;28;20036;-70
2023/03/21 00:38:19;;;;;;;8.38;5.50;;;;;;;;;;5283219;28;20455;-71
2023/03/21 00:40:50;;;;;;;10.07;5.63;;;;;;;;;;5281893;28;20036;-70
2023/03/21 00:43:22;;;;;;;10.05;5.03;;;;;;;;;;5282613;28;20031;-70
2023/03/21 00:45:53;;;;;;;7.53;4.85;;;;;;;;;;5282445;28;20092;-70
2023/03/21 00:48:25;;;;;;;9.80;5.28;;;;;;;;;;5281623;28;20044;-70
2023/03/21 00:50:58;;;;;;;9.73;5.15;;;;;;;;;;5282752;28;20044;-70
2023/03/21 00:53:30;;;;;;;7.78;4.60;;;;;;;;;;5282187;28;20498;-71
2023/03/21 00:56:01;;;;;;;5.68;3.97;;;;;;;;;;5281989;28;20040;-70
2023/03/21 00:58:32;;;;;;;5.70;3.60;;;;;;;;;;5282241;28;20033;-70
2023/03/21 01:01:05;;;;;;;7.65;4.22;;;;;;;;;;5282658;28;20074;-70
2023/03/21 01:03:41;;;;;;;7.28;3.63;;;;;;;;;;5281291;28;20012;-71
2023/03/21 01:06:12;;;;;;;9.25;4.20;;;;;;;;;;5282469;28;20391;-70
2023/03/21 01:08:44;;;;;;;9.40;4.50;;;;;;;;;;5281380;28;20023;-70
2023/03/21 01:11:17;;;;;;;7.65;3.45;;;;;;;;;;5282369;28;20024;-70
2023/03/21 01:13:48;;;;;;;10.48;3.40;;;;;;;;;;5281811;28;20107;-70
2023/03/21 01:16:19;;;;;;;8.45;3.83;;;;;;;;;;5281446;28;20092;-71
2023/03/21 01:18:50;;;;;;;7.95;3.58;;;;;;;;;;5281932;28;20023;-70
2023/03/21 01:21:22;;;;;;;5.82;3.42;;;;;;;;;;5282258;28;20042;-70
2023/03/21 01:23:56;;;;;;;8.68;3.83;;;;;;;;;;5281349;28;20043;-70
2023/03/21 01:26:27;;;;;;;10.00;3.65;;;;;;;;;;5281741;28;20078;-70
2023/03/21 01:28:58;;;;;;;7.57;3.03;;;;;;;;;;5282275;28;20009;-69
2023/03/21 01:31:30;;;;;;;6.90;3.17;;;;;;;;;;5280997;28;20012;-70
2023/03/21 01:34:01;;;;;;;7.30;3.50;;;;;;;;;;5282500;28;20100;-69
2023/03/21 01:36:32;;;;;;;8.38;3.15;;;;;;;;;;5280531;28;20024;-70
2023/03/21 01:39:05;;;;;;;9.10;3.67;;;;;;;;;;5282197;28;20032;-69
2023/03/21 01:41:37;;;;;;;7.07;3.30;;;;;;;;;;5281296;28;20074;-69
2023/03/21 01:44:16;;;;;;;6.63;3.08;;;;;;;;;;5281669;28;20012;-70
2023/03/21 01:46:48;;;;;;;9.50;3.35;;;;;;;;;;5281558;28;20033;-69
2023/03/21 01:49:24;;;;;;;7.38;3.50;;;;;;;;;;5281902;28;20096;-69
2023/03/21 01:51:58;;;;;;;8.45;3.42;;;;;;;;;;5281141;28;20048;-69
2023/03/21 01:54:32;;;;;;;6.15;3.70;;;;;;;;;;5281720;28;20115;-70
2023/03/21 01:57:07;;;;;;;7.32;3.63;;;;;;;;;;5282386;28;20100;-69
2023/03/21 01:59:38;;;;;;;6.35;3.42;;;;;;;;;;5284715;28;20028;-69
2023/03/21 02:02:22;;;;;;;7.47;3.55;;;;;;;;;;5286274;28;20383;-70
2023/03/21 02:04:56;;;;;;;6.82;3.75;;;;;;;;;;5285092;28;20038;-69
2023/03/21 02:07:30;;;;;;;7.28;3.67;;;;;;;;;;5285630;28;20356;-70
2023/03/21 02:10:03;;;;;;;8.10;3.53;;;;;;;;;;5286178;28;20056;-69
2023/03/21 02:12:34;;;;;;;6.10;3.30;;;;;;;;;;5284739;28;20027;-70
2023/03/21 02:15:07;;;;;;;6.07;3.40;;;;;;;;;;5286024;28;20475;-70
2023/03/21 02:17:41;;;;;;;6.22;3.25;;;;;;;;;;5285412;28;20600;-70
2023/03/21 02:20:27;;;;;;;6.32;3.40;;;;;;;;;;5285116;28;20453;-70
2023/03/21 02:23:16;;;;;;;5.70;3.35;;;;;;;;;;5285685;28;20352;-70
2023/03/21 02:25:47;;;;;;;8.20;3.50;;;;;;;;;;5284641;28;20395;-70
2023/03/21 02:28:28;;;;;;;5.70;3.22;;;;;;;;;;5285687;28;20021;-69
2023/03/21 02:31:06;;;;;;;5.50;3.25;;;;;;;;;;5285881;28;20258;-69
2023/03/21 02:33:37;;;;;;;6.15;3.38;;;;;;;;;;5284098;28;20031;-69
2023/03/21 02:36:08;;;;;;;7.28;3.67;;;;;;;;;;5285500;28;20028;-69
2023/03/21 02:39:00;;;;;;;6.05;2.95;;;;;;;;;;5284912;28;20267;-70
2023/03/21 02:41:31;;;;;;;8.40;3.15;;;;;;;;;;5284113;28;20115;-70
2023/03/21 02:44:02;;;;;;;7.25;3.80;;;;;;;;;;5285400;28;20535;-69
2023/03/21 02:46:34;;;;;;;8.90;3.47;;;;;;;;;;5284639;28;20618;-70
2023/03/21 02:49:08;;;;;;;5.60;3.70;;;;;;;;;;5284711;28;20271;-69
2023/03/21 02:51:41;;;;;;;8.63;3.72;;;;;;;;;;5283704;28;20048;-69
2023/03/21 02:54:15;;;;;;;6.10;3.05;;;;;;;;;;5283337;28;20056;-70
2023/03/21 02:56:47;;;;;;;6.53;2.95;;;;;;;;;;5283480;28;20074;-69
2023/03/21 02:59:21;;;;;;;6.80;3.88;;;;;;;;;;5283993;28;20459;-70
2023/03/21 03:01:53;;;;;;;7.35;3.40;;;;;;;;;;5282896;28;20050;-70
2023/03/21 03:04:26;;;;;;;7.47;2.97;;;;;;;;;;5283197;28;20044;-69
2023/03/21 03:06:57;;;;;;;8.23;3.55;;;;;;;;;;5283713;28;20020;-70
2023/03/21 03:09:37;;;;;;;9.85;4.25;;;;;;;;;;5281856;28;20047;-71
2023/03/21 03:12:19;;;;;;;9.40;4.15;;;;;;;;;;5283701;28;20021;-70
2023/03/21 03:14:59;;;;;;;8.68;3.83;;;;;;;;;;5283556;28;20362;-70
2023/03/21 03:17:37;;;;;;;7.38;3.72;;;;;;;;;;5282880;28;20032;-70
2023/03/21 03:20:15;;;;;;;9.15;4.45;;;;;;;;;;5283708;28;20017;-69
2023/03/21 03:22:53;;;;;;;7.40;3.97;;;;;;;;;;5282200;28;20029;-71
2023/03/21 03:25:30;;;;;;;8.85;4.03;;;;;;;;;;5282826;28;20051;-70
2023/03/21 03:28:03;;;;;;;6.93;4.30;;;;;;;;;;5283437;28;20036;-70
2023/03/21 03:30:35;;;;;;;8.65;4.30;;;;;;;;;;5282186;28;20079;-71
2023/03/21 03:33:08;;;;;;;11.95;4.43;;;;;;;;;;5283410;28;20021;-71
2023/03/21 03:35:39;;;;;;;8.70;4.35;;;;;;;;;;5282604;28;20048;-70
2023/03/21 03:38:11;;;;;;;7.20;3.67;;;;;;;;;;5282611;28;20048;-70
2023/03/21 03:40:47;;;;;;;9.75;4.38;;;;;;;;;;5282502;28;20056;-70
2023/03/21 03:43:25;;;;;;;8.10;4.70;;;;;;;;;;5282250;28;20022;-70
2023/03/21 03:45:58;;;;;;;9.02;4.35;;;;;;;;;;5283290;28;20028;-69
2023/03/21 03:48:34;;;;;;;10.98;4.80;;;;;;;;;;5282370;28;20023;-70
2023/03/21 03:51:21;;;;;;;7.78;4.00;;;;;;;;;;5245206;28;1058077;-70
2023/03/21 03:54:00;;;;;;;8.10;3.85;;;;;;;;;;5283551;28;20029;-70
2023/03/21 03:56:31;;;;;;;;;;;;;;;;;;5284126;28;20089;-69
2023/03/21 03:59:03;;;;;;;7.13;3.58;;;;;;;;;;5283027;28;19904;-70
2023/03/21 04:01:35;;;;;;;7.00;3.78;;;;;;;;;;5283284;28;20069;-70
2023/03/21 04:04:06;;;;;;;8.60;4.68;;;;;;;;;;5283954;28;20012;-69
2023/03/21 04:06:37;;;;;;;9.52;4.53;;;;;;;;;;5282621;28;20029;-69
2023/03/21 04:09:09;;;;;;;8.50;5.10;;;;;;;;;;5283656;28;20013;-69
2023/03/21 04:11:40;;;;;;;8.60;4.50;;;;;;;;;;5282131;28;20488;-69
2023/03/21 04:14:11;;;;;;;8.27;4.10;;;;;;;;;;5283765;28;20025;-70
2023/03/21 04:16:42;;;;;;;10.40;4.78;;;;;;;;;;5283243;28;20029;-71
2023/03/21 04:19:14;;;;;;;12.68;4.85;;;;;;;;;;5282558;28;20115;-69
2023/03/21 04:21:46;;;;;;;8.45;4.30;;;;;;;;;;5282178;28;20032;-69
2023/03/21 04:24:17;;;;;;;7.22;4.53;;;;;;;;;;5283302;28;20048;-69
2023/03/21 04:26:48;;;;;;;8.05;4.13;;;;;;;;;;5282078;28;20025;-70
2023/03/21 04:29:19;;;;;;;10.05;4.75;;;;;;;;;;5283035;28;20031;-70
2023/03/21 04:31:52;;;;;;;8.88;4.28;;;;;;;;;;5282959;28;20285;-70
2023/03/21 04:34:26;;;;;;;8.98;4.63;;;;;;;;;;5282128;28;20031;-69
2023/03/21 04:36:58;;;;;;;7.00;4.28;;;;;;;;;;5283268;28;20019;-69
2023/03/21 04:39:29;;;;;;;9.38;4.60;;;;;;;;;;5281789;28;20036;-70
2023/03/21 04:42:00;;;;;;;10.82;4.50;;;;;;;;;;5282967;28;20021;-70
2023/03/21 04:44:31;;;;;;;12.07;5.13;;;;;;;;;;5282336;28;20549;-70
2023/03/21 04:47:02;;;;;;;10.60;4.63;;;;;;;;;;5282124;28;20784;-70
2023/03/21 04:49:34;;;;;;;10.40;5.18;;;;;;;;;;5282493;28;20420;-70
2023/03/21 04:52:05;;;;;;;11.18;5.18;;;;;;;;;;5282625;28;20052;-70
2023/03/21 04:54:36;;;;;;;12.07;4.97;;;;;;;;;;5281555;28;20032;-71
2023/03/21 04:57:07;;;;;;;9.23;4.20;;;;;;;;;;5282831;28;20108;-70
2023/03/21 04:59:39;;;;;;;16.63;5.55;;;;;;;;;;5282141;28;20115;-70
2023/03/21 05:02:11;;;;;;;10.80;3.92;;;;;;;;;;5282253;28;20021;-69
2023/03/21 05:04:42;;;;;;;12.02;5.40;;;;;;;;;;5282226;28;20029;-69
2023/03/21 05:07:14;;;;;;;10.57;4.85;;;;;;;;;;5282713;28;20016;-70
2023/03/21 05:09:45;;;;;;;9.07;4.00;;;;;;;;;;5281076;28;20016;-70
2023/03/21 05:12:18;;;;;;;11.73;4.97;;;;;;;;;;5282392;28;20463;-69
2023/03/21 05:14:49;;;;;;;9.63;4.40;;;;;;;;;;5281309;28;20584;-71
2023/03/21 05:17:23;;;;;;;10.25;4.10;;;;;;;;;;5282235;28;20048;-70
2023/03/21 05:19:57;;;;;;;9.02;4.18;;;;;;;;;;5282268;28;20074;-71
2023/03/21 05:22:28;;;;;;;7.45;4.15;;;;;;;;;;5280928;28;20471;-71
2023/03/21 05:25:00;;;;;;;11.88;4.75;;;;;;;;;;5282121;28;20031;-69
2023/03/21 05:27:34;;;;;;;8.80;4.57;;;;;;;;;;5282009;28;20124;-69
2023/03/21 05:30:07;;;;;;;8.30;4.00;;;;;;;;;;5281557;28;20103;-70
2023/03/21 05:32:39;;;;;;;13.23;4.50;;;;;;;;;;5281379;28;20016;-70
2023/03/21 05:35:10;;;;;;;8.73;3.67;;;;;;;;;;5282110;28;20024;-70
2023/03/21 05:37:41;;;;;;;8.80;4.30;;;;;;;;;;5281107;28;20028;-70
2023/03/21 05:40:12;;;;;;;10.73;4.03;;;;;;;;;;5282066;28;20115;-71
2023/03/21 05:42:45;;;;;;;8.82;3.88;;;;;;;;;;5280744;28;20107;-71
2023/03/21 05:45:16;;;;;;;9.52;3.78;;;;;;;;;;5281759;28;20044;-70
2023/03/21 05:47:47;;;;;;;10.10;4.65;;;;;;;;;;5281076;28;20055;-71
2023/03/21 05:50:18;;;;;;;7.55;3.80;;;;;;;;;;5280883;28;20027;-69
2023/03/21 05:52:50;;;;;;;9.20;3.70;;;;;;;;;;5280672;28;20094;-70
2023/03/21 05:55:21;;;;;;;10.63;4.47;;;;;;;;;;5281358;28;20024;-70
2023/03/21 05:57:52;;;;;;;11.68;4.70;;;;;;;;;;5280482;28;20025;-70
2023/03/21 06:00:23;;;;;;;7.88;3.72;;;;;;;;;;5281325;28;20043;-70
2023/03/21 06:02:54;;;;;;;9.35;3.80;;;;;;;;;;5281615;28;20016;-70
2023/03/21 06:05:26;;;;;;;10.25;4.38;;;;;;;;;;5280903;28;20031;-69
2023/03/21 06:07:57;;;;;;;8.57;3.40;;;;;;;;;;5281849;28;20045;-70
2023/03/21 06:10:28;;;;;;;9.93;3.92;;;;;;;;;;5281027;28;20024;-70
2023/03/21 06:12:59;;;;;;;9.60;4.15;;;;;;;;;;5280668;28;20103;-70
2023/03/21 06:15:31;;;;;;;8.20;3.80;;;;;;;;;;5281660;28;20028;-71
2023/03/21 06:18:02;;;;;;;8.27;3.25;;;;;;;;;;5280938;28;20024;-70
2023/03/21 06:20:33;;;;;;;6.85;2.75;;;;;;;;;;5280978;28;20090;-69
2023/03/21 06:23:04;;;;;;;7.20;3.13;;;;;;;;;;5281319;28;20074;-70
2023/03/21 06:25:35;;;;;;;8.30;2.72;;;;;;;;;;5280456;28;20020;-70
2023/03/21 06:28:07;;;;;;;9.70;3.08;;;;;;;;;;5281628;28;20043;-70
2023/03/21 06:30:38;;;;;;;7.30;2.28;;;;;;;;;;5280779;28;20732;-70
2023/03/21 06:33:09;;;;;;;9.25;3.05;;;;;;;;;;5280681;28;20028;-70
2023/03/21 06:35:40;;;;;;;4.85;2.10;;;;;;;;;;5280768;28;20184;-69
2023/03/21 06:38:11;;;;;;;10.10;2.85;;;;;;;;;;5281627;28;20021;-69
2023/03/21 06:40:44;;;;;;;7.07;2.65;;;;;;;;;;5280058;28;20028;-70
2023/03/21 06:43:15;;;;;;;7.45;2.40;;;;;;;;;;5282289;28;20016;-70
2023/03/21 06:45:46;;;;;;;7.75;3.08;;;;;;;;;;5284486;28;20378;-70
2023/03/21 06:48:18;;;;;;;8.20;2.92;;;;;;;;;;5284394;28;20408;-70
2023/03/21 06:50:50;;;;;;;8.43;2.90;;;;;;;;;;5284471;28;20441;-70
2023/03/21 06:53:23;;;;;;;6.18;2.38;;;;;;;;;;5284092;28;20035;-70
2023/03/21 06:55:55;;;;;;;9.13;3.10;;;;;;;;;;5284666;28;20368;-69
2023/03/21 06:58:26;;;;;;;7.10;2.47;;;;;;;;;;5284232;28;20024;-70
2023/03/21 07:00:59;;;;;;;7.63;2.00;;;;;;;;;;5284251;28;20159;-69
2023/03/21 07:03:30;;;;;;;7.85;2.63;;;;;;;;;;5284285;28;20024;-70
2023/03/21 07:06:10;;;;;;;7.30;2.95;;;;;;;;;;5284943;28;20379;-69
2023/03/21 07:08:41;;;;;;;7.32;3.05;;;;;;;;;;5283190;28;20502;-70
2023/03/21 07:11:13;;;;;;;7.72;2.13;;;;;;;;;;5284643;28;20052;-70
2023/03/21 07:13:44;;;;;;;4.90;2.40;;;;;;;;;;5284416;28;20422;-70
2023/03/21 07:16:16;;;;;;;6.57;2.42;;;;;;;;;;5283945;28;20020;-71
2023/03/21 07:18:47;;;;;;;10.48;2.55;;;;;;;;;;5284185;28;20028;-71
2023/03/21 07:21:19;;;;;;;7.63;2.65;;;;;;;;;;5283462;28;20070;-70
2023/03/21 07:23:50;;;;;;;9.32;3.00;;;;;;;;;;5283866;28;20459;-71
2023/03/21 07:26:21;;;;;;;9.48;2.95;;;;;;;;;;5284207;28;20069;-71
2023/03/21 07:28:52;;;;;;;8.00;2.97;;;;;;;;;;5283484;28;20023;-69
2023/03/21 07:31:25;;;;;;;8.70;3.50;;;;;;;;;;5284192;28;20019;-69
2023/03/21 07:33:56;;;;;;;6.40;2.88;;;;;;;;;;5284251;28;20020;-70
2023/03/21 07:36:28;;;;;;;8.63;3.28;;;;;;;;;;5283241;28;20548;-71
2023/03/21 07:38:59;;;;;;;9.57;3.30;;;;;;;;;;5284187;28;20027;-70
2023/03/21 07:41:30;;;;;;;8.65;4.20;;;;;;;;;;5283525;28;20424;-71
2023/03/21 07:44:02;;;;;;;8.13;3.63;;;;;;;;;;5283236;28;20024;-70
2023/03/21 07:46:33;;;;;;;9.85;3.63;;;;;;;;;;5283288;28;20056;-71
2023/03/21 07:49:05;;;;;;;10.55;3.60;;;;;;;;;;5283824;28;20049;-71
2023/03/21 07:51:36;;;;;;;10.07;4.00;;;;;;;;;;5282419;28;20057;-72
2023/03/21 07:54:07;;;;;;;7.65;3.45;;;;;;;;;;5283467;28;20533;-72
2023/03/21 07:56:38;;;;;;;11.60;4.07;;;;;;;;;;5281553;28;20426;-71
2023/03/21 07:59:09;;;;;;;7.30;3.85;;;;;;;;;;5283930;28;20082;-71
2023/03/21 08:01:41;;;;;;;10.05;3.47;;;;;;;;;;5283222;28;20089;-71
2023/03/21 08:04:12;;;;;;;9.02;3.60;;;;;;;;;;5283000;28;20028;-70
2023/03/21 08:06:44;;;;;;;8.52;4.25;;;;;;;;;;5282971;28;20180;-70
2023/03/21 08:09:15;;;;;;;9.40;3.80;;;;;;;;;;5283455;28;20024;-69
2023/03/21 08:11:46;;;;;;;10.82;4.63;;;;;;;;;;5282437;28;20123;-70
2023/03/21 08:14:17;;;;;;;8.45;3.95;;;;;;;;;;5283683;28;20012;-70
2023/03/21 08:16:49;;;;;;;8.98;4.25;;;;;;;;;;5282880;28;20027;-70
2023/03/21 08:19:20;;;;;;;8.10;4.82;;;;;;;;;;5282349;28;20021;-70
2023/03/21 08:21:51;;;;;;;9.43;4.43;;;;;;;;;;5283133;28;20032;-70
2023/03/21 08:24:23;;;;;;;7.93;3.85;;;;;;;;;;5282728;28;20026;-70
2023/03/21 08:26:54;;;;;;;10.45;4.00;;;;;;;;;;5282394;28;20103;-70
2023/03/21 08:29:26;;;;;;;7.45;3.97;;;;;;;;;;5282544;28;20266;-70
2023/03/21 08:31:57;;;;;;;10.63;3.90;;;;;;;;;;5282300;28;20097;-69
2023/03/21 08:34:28;;;;;;;6.50;3.92;;;;;;;;;;5282565;28;20044;-70
2023/03/21 08:37:00;;;;;;;6.97;3.80;;;;;;;;;;5282945;28;20058;-71
2023/03/21 08:39:31;;;;;;;6.40;2.80;;;;;;;;;;5281529;28;20025;-71
2023/03/21 08:42:02;;;;;;;8.38;4.22;;;;;;;;;;5282842;28;20026;-70
2023/03/21 08:44:33;;;;;;;6.95;3.53;;;;;;;;;;5282321;28;20021;-71
2023/03/21 08:47:05;;;;;;;6.75;2.97;;;;;;;;;;5282177;28;20032;-70
2023/03/21 08:49:36;;;;;;;6.20;2.90;;;;;;;;;;5282181;28;20346;-70
2023/03/21 08:52:08;;;;;;;8.60;3.10;;;;;;;;;;5282319;28;20048;-70
2023/03/21 08:54:40;;;;;;;8.13;3.95;;;;;;;;;;5281562;28;20066;-71
2023/03/21 08:57:11;;;;;;;4.93;2.38;;;;;;;;;;5282342;28;20027;-71
2023/03/21 08:59:43;;;;;;;9.05;3.38;;;;;;;;;;5281422;28;20438;-71
2023/03/21 09:02:15;;;;;;;7.85;2.55;;;;;;;;;;5282326;28;20021;-71
2023/03/21 09:04:46;;;;;;;8.23;2.95;;;;;;;;;;5281921;28;20345;-71
2023/03/21 09:07:17;;;;;;;7.20;3.15;;;;;;;;;;5281405;28;20023;-71
2023/03/21 09:09:51;;;;;;;6.57;3.05;;;;;;;;;;5281585;28;20471;-71
2023/03/21 09:12:23;;;;;;;7.55;3.03;;;;;;;;;;5282160;28;20471;-71
2023/03/21 09:14:54;;;;;;;9.13;3.40;;;;;;;;;;5280968;28;20027;-70
2023/03/21 09:17:25;;;;;;;4.97;2.95;;;;;;;;;;5281735;28;20258;-69
2023/03/21 09:19:59;;;;;;;8.88;3.72;;;;;;;;;;5277495;28;20057;-68
2023/03/21 09:22:31;;;;;;;6.65;2.30;;;;;;;;;;5280288;28;20468;-69
2023/03/21 09:25:06;;;;;;;4.57;2.22;;;;;;;;;;5281880;28;20039;-68
2023/03/21 09:27:37;;;;;;;8.98;3.28;;;;;;;;;;5281200;28;20419;-68
2023/03/21 09:30:09;;;;;;;9.48;3.30;;;;;;;;;;5281161;28;20024;-70
2023/03/21 09:32:40;;;;;;;9.52;2.60;;;;;;;;;;5280299;28;20020;-71
2023/03/21 09:35:12;;;;;;;9.60;3.05;;;;;;;;;;5281498;28;20460;-70
2023/03/21 09:37:44;;;;;;;5.57;2.20;;;;;;;;;;5281411;28;20029;-71
2023/03/21 09:40:16;;;;;;;7.90;2.70;;;;;;;;;;5281903;28;20028;-71
2023/03/21 09:42:54;;;;;;;6.55;2.05;;;;;;;;;;5280695;28;20433;-71
2023/03/21 09:45:34;;;;;;;7.82;2.15;;;;;;;;;;5281321;28;20040;-71
2023/03/21 09:48:09;;;;;;;7.15;2.50;;;;;;;;;;5282006;28;20016;-69
2023/03/21 09:50:41;;;;;;;6.43;1.95;;;;;;;;;;5280391;28;20021;-71
2023/03/21 09:53:22;;;;;;;6.50;2.53;;;;;;;;;;5281789;28;20089;-71
2023/03/21 09:55:53;;;;;;;6.20;2.45;;;;;;;;;;5280848;28;20467;-72
2023/03/21 09:58:31;;;;;;;6.10;2.42;;;;;;;;;;5281541;28;20024;-71
2023/03/21 10:01:09;;;;;;;5.72;2.00;;;;;;;;;;5281767;28;20649;-71
2023/03/21 10:03:42;;;;;;;6.37;2.30;;;;;;;;;;5280562;28;20012;-71
2023/03/21 10:06:15;;;;;;;5.97;2.15;;;;;;;;;;5282124;28;20402;-71
2023/03/21 10:08:46;;;;;;;8.10;1.70;;;;;;;;;;5281023;28;20016;-71
2023/03/21 10:11:21;;;;;;;8.25;1.92;;;;;;;;;;5281181;28;20061;-71
2023/03/21 10:14:01;;;;;;;7.97;2.40;;;;;;;;;;5281706;28;20044;-70
2023/03/21 10:16:35;;;;;;;5.60;2.05;;;;;;;;;;5281217;28;20021;-71
2023/03/21 10:19:09;;;;;;;5.82;2.03;;;;;;;;;;5283220;28;20017;-71
2023/03/21 10:21:42;;;;;;;5.25;1.77;;;;;;;;;;5285116;28;20032;-71
2023/03/21 10:24:16;;;;;;;9.02;1.80;;;;;;;;;;5284956;28;20016;-70
2023/03/21 10:26:48;;;;;;;4.95;2.00;;;;;;;;;;5285046;28;20020;-71
2023/03/21 10:29:24;;;;;;;6.78;1.75;;;;;;;;;;5285181;28;20065;-71
2023/03/21 10:31:55;;;;;;;6.38;2.17;;;;;;;;;;5284809;28;20510;-71
2023/03/21 10:34:46;;;;;;;5.97;1.80;;;;;;;;;;5284690;28;20020;-71
2023/03/21 10:37:18;;;;;;;6.75;1.83;;;;;;;;;;5285274;28;20066;-71
2023/03/21 10:39:50;;;;;;;6.60;2.10;;;;;;;;;;5284149;28;20025;-71
2023/03/21 10:42:24;;;;;;;7.13;1.75;;;;;;;;;;5285135;28;20032;-71
2023/03/21 10:44:56;;;;;;;4.82;1.70;;;;;;;;;;5285433;28;20095;-72
2023/03/21 10:47:31;;;;;;;5.82;2.15;;;;;;;;;;5283857;28;20406;-72
2023/03/21 10:50:06;;;;;;;4.68;1.27;;;;;;;;;;5285352;28;20028;-71
2023/03/21 10:52:41;;;;;;;7.03;2.40;;;;;;;;;;5283590;28;20044;-71
2023/03/21 10:55:20;;;;;;;5.70;1.67;;;;;;;;;;5285089;28;20016;-71
2023/03/21 10:57:57;;;;;;;5.82;1.52;;;;;;;;;;5284852;28;20055;-71
2023/03/21 11:00:34;;;;;;;8.07;1.88;;;;;;;;;;5283993;28;20466;-71
2023/03/21 11:03:06;;;;;;;5.47;1.10;;;;;;;;;;5285115;28;20467;-70
2023/03/21 11:05:39;;;;;;;6.25;1.42;;;;;;;;;;5284531;28;20410;-71
2023/03/21 11:08:12;;;;;;;4.47;1.30;;;;;;;;;;5284039;28;20018;-71
2023/03/21 11:10:54;;;;;;;5.43;1.40;;;;;;;;;;5284325;28;20048;-71
2023/03/21 11:13:26;;;;;;;5.97;1.15;;;;;;;;;;5283506;28;20040;-72
2023/03/21 11:16:04;;;;;;;4.32;1.10;;;;;;;;;;5285025;28;20024;-71
2023/03/21 11:18:39;;;;;;;7.38;2.33;;;;;;;;;;5284206;28;20020;-71
2023/03/21 11:21:12;;;;;;;6.65;1.30;;;;;;;;;;5283756;28;20387;-71
2023/03/21 11:23:46;;;;;;;6.25;1.40;;;;;;;;;;5283975;28;20044;-71
2023/03/21 11:26:22;;;;;;;6.03;1.25;;;;;;;;;;5284702;28;20024;-71
2023/03/21 11:28:54;;;;;;;4.15;1.13;;;;;;;;;;5283137;28;20027;-71
2023/03/21 11:31:37;;;;;;;6.72;1.85;;;;;;;;;;5283858;28;20021;-70
2023/03/21 11:34:22;;;;;;;5.88;1.35;;;;;;;;;;5284677;28;20020;-70
2023/03/21 11:36:57;;;;;;;5.63;1.63;;;;;;;;;;5284031;28;20016;-71
2023/03/21 11:39:29;;;;;;;4.47;1.23;;;;;;;;;;5283588;28;20513;-72
2023/03/21 11:42:00;;;;;;;5.45;1.02;;;;;;;;;;5283496;28;20024;-72
2023/03/21 11:44:33;;;;;;;4.75;1.30;;;;;;;;;;5283818;28;20033;-71
2023/03/21 11:47:04;;;;;;;5.03;1.10;;;;;;;;;;5284141;28;20474;-70
2023/03/21 11:49:36;;;;;;;6.10;1.35;;;;;;;;;;5282917;28;20017;-70
2023/03/21 11:52:07;;;;;;;5.07;1.83;;;;;;;;;;5283795;28;20056;-70
2023/03/21 11:54:44;;;;;;;5.82;1.23;;;;;;;;;;5283708;28;20028;-70
2023/03/21 11:57:41;;;;;;;4.80;1.45;;;;;;;;;;5283241;28;20761;-71
2023/03/21 12:00:22;;;;;;;6.50;1.30;;;;;;;;;;5267653;28;20044;-70
2023/03/21 12:03:12;;;;;;;5.05;1.20;;;;;;;;;;5283091;28;20032;-71
2023/03/21 12:05:54;;;;;;;8.90;1.20;;;;;;;;;;5283330;28;20391;-71
2023/03/21 12:08:42;;;;;;;4.07;1.00;;;;;;;;;;5283034;28;20100;-71
2023/03/21 12:11:13;;;;;;;3.45;1.10;;;;;;;;;;5282860;28;20008;-71
2023/03/21 12:14:09;;;;;;;5.40;1.48;;;;;;;;;;5283169;28;20024;-71
2023/03/21 12:16:42;;;;;;;5.35;1.20;;;;;;;;;;5282392;28;20277;-71
2023/03/21 12:19:16;;;;;;;5.47;1.55;;;;;;;;;;5283417;28;20036;-71
2023/03/21 12:21:59;;;;;;;6.30;1.48;;;;;;;;;;5282833;28;20024;-71
2023/03/21 12:24:42;;;;;;;5.82;1.17;;;;;;;;;;5282185;28;20021;-71
2023/03/21 12:27:20;;;;;;;4.50;1.10;;;;;;;;;;5283021;28;20467;-71
2023/03/21 12:30:03;;;;;;;5.72;1.35;;;;;;;;;;5282978;28;20037;-71
2023/03/21 12:32:43;;;;;;;7.13;1.02;;;;;;;;;;5281966;28;20107;-69
2023/03/21 12:35:20;;;;;;;7.05;1.20;;;;;;;;;;5283024;28;20021;-71
2023/03/21 12:38:07;;;;;;;6.28;1.13;;;;;;;;;;5281746;28;20486;-70
2023/03/21 12:40:58;;;;;;;5.85;1.10;;;;;;;;;;5282109;28;20115;-69
2023/03/21 12:43:37;;;;;;;5.35;1.20;;;;;;;;;;5281724;28;20025;-71
2023/03/21 12:46:18;;;;;;;4.95;1.30;;;;;;;;;;5281934;28;20032;-70
2023/03/21 12:48:52;;;;;;;5.53;1.05;;;;;;;;;;5281993;28;20013;-71
2023/03/21 12:51:28;;;;;;;6.00;1.67;;;;;;;;;;5282197;28;20048;-72
2023/03/21 12:54:06;;;;;;;3.88;1.08;;;;;;;;;;5281875;28;20029;-71
2023/03/21 12:56:43;;;;;;;7.05;1.30;;;;;;;;;;5281650;28;20059;-71
2023/03/21 12:59:15;;;;;;;4.88;0.95;;;;;;;;;;5281742;28;20096;-73
2023/03/21 13:01:47;;;;;;;7.13;1.42;;;;;;;;;;5282062;28;20161;-71
2023/03/21 13:04:23;;;;;;;4.43;1.00;;;;;;;;;;5282374;28;20100;-70
2023/03/21 13:06:54;;;;;;;6.00;1.20;;;;;;;;;;5281261;28;20037;-71
2023/03/21 13:09:46;;;;;;;5.20;1.08;;;;;;;;;;5278302;28;20040;-71
2023/03/21 13:12:35;;;;;;;3.33;1.10;;;;;;;;;;5281435;28;20028;-70
2023/03/21 13:15:17;;;;;;;3.40;1.05;;;;;;;;;;5281246;28;20021;-71
2023/03/21 13:17:54;;;;;;;4.35;1.33;;;;;;;;;;5281625;28;20517;-70
2023/03/21 13:20:29;;;;;;;3.60;1.00;;;;;;;;;;5280490;28;20112;-72
2023/03/21 13:23:02;;;;;;;3.63;1.17;;;;;;;;;;5282110;28;20375;-70
2023/03/21 13:25:38;;;;;;;4.35;1.20;;;;;;;;;;5281374;28;20066;-71
2023/03/21 13:28:16;;;;;;;4.45;1.23;;;;;;;;;;5280973;28;20028;-71
2023/03/21 13:30:48;;;;;;;4.95;1.20;;;;;;;;;;5281452;28;20021;-70
2023/03/21 13:33:22;;;;;;;4.78;1.00;;;;;;;;;;5281987;28;20023;-70
2023/03/21 13:36:04;;;;;;;5.03;1.40;;;;;;;;;;5280835;28;20016;-69
2023/03/21 13:38:38;;;;;;;4.13;1.10;;;;;;;;;;5281243;28;20149;-70
2023/03/21 13:41:16;;;;;;;5.10;1.10;;;;;;;;;;5281104;28;20070;-70
2023/03/21 13:43:51;;;;;;;4.43;1.20;;;;;;;;;;5281403;28;20359;-70
2023/03/21 13:46:25;;;;;;;3.85;1.02;;;;;;;;;;5281708;28;20119;-71
2023/03/21 13:49:00;;;;;;;5.05;0.98;;;;;;;;;;5280616;28;20112;-70
2023/03/21 13:51:51;;;;;;;5.07;0.90;;;;;;;;;;5280886;28;20052;-71
2023/03/21 13:54:37;;;;;;;2.70;0.70;;;;;;;;;;5285398;28;20111;-70
2023/03/21 13:57:20;;;;;;;4.68;0.75;;;;;;;;;;5285026;28;20030;-70
2023/03/21 14:00:12;;;;;;;2.50;0.82;;;;;;;;;;5285582;28;20036;-70
2023/03/21 14:03:09;;;;;;;3.05;0.88;;;;;;;;;;5284091;28;20550;-70
2023/03/21 14:05:41;;;;;;;2.67;0.73;;;;;;;;;;5282965;28;20040;-70
2023/03/21 14:08:15;;;;;;;2.90;0.85;;;;;;;;;;5285771;28;20025;-70
2023/03/21 14:10:50;;;;;;;5.00;1.10;;;;;;;;;;5284246;28;20020;-71
2023/03/21 14:13:24;;;;;;;3.17;1.27;;;;;;;;;;5285816;28;20008;-69
2023/03/21 14:16:11;;;;;;;2.58;0.60;;;;;;;;;;5285679;28;20020;-70
2023/03/21 14:18:44;;;;;;;4.30;1.00;;;;;;;;;;5284580;28;20055;-69
2023/03/21 14:21:18;;;;;;;5.38;1.15;;;;;;;;;;5284919;28;20024;-70
2023/03/21 14:24:05;;;;;;;3.95;1.00;;;;;;;;;;5283387;28;20040;-70
2023/03/21 14:26:40;;;;;;;4.15;0.93;;;;;;;;;;5284879;28;20472;-70
2023/03/21 14:29:31;;;;;;;4.53;0.80;;;;;;;;;;5285362;28;20012;-70
2023/03/21 14:32:04;;;;;;;3.55;0.68;;;;;;;;;;5284718;28;20012;-71
2023/03/21 14:34:35;;;;;;;2.65;1.13;;;;;;;;;;5284693;28;20108;-70
2023/03/21 14:37:09;;;;;;;2.95;0.90;;;;;;;;;;5285226;28;20020;-71
2023/03/21 14:39:41;;;;;;;2.78;1.00;;;;;;;;;;5284230;28;20375;-71
2023/03/21 14:42:13;;;;;;;3.42;0.90;;;;;;;;;;5285045;28;20028;-71
2023/03/21 14:44:48;;;;;;;3.47;0.93;;;;;;;;;;5283453;28;20024;-71
2023/03/21 14:47:21;;;;;;;4.22;1.10;;;;;;;;;;5284659;28;20078;-70
2023/03/21 14:49:52;;;;;;;4.90;1.00;;;;;;;;;;5284865;28;20017;-71
2023/03/21 14:52:24;;;;;;;2.78;0.98;;;;;;;;;;5278574;28;20060;-70
2023/03/21 14:54:56;;;;;;;4.13;0.90;;;;;;;;;;5275250;28;20073;-71
2023/03/21 14:57:30;;;;;;;3.03;1.10;;;;;;;;;;5282475;28;20025;-71
2023/03/21 15:00:11;;;;;;;2.20;0.80;;;;;;;;;;5262873;28;20028;-70
2023/03/21 15:02:44;;;;;;;2.55;0.75;;;;;;;;;;5263163;28;20036;-70
2023/03/21 15:05:15;;;;;;;4.30;0.90;;;;;;;;;;5263119;28;20349;-70
2023/03/21 15:07:55;;;;;;;2.85;0.80;;;;;;;;;;5262024;28;20067;-70
2023/03/21 15:10:29;;;;;;;1.77;0.70;;;;;;;;;;5263160;28;20022;-72
2023/03/21 15:13:11;;;;;;;1.90;0.60;;;;;;;;;;5263185;28;20534;-71
2023/03/21 15:15:43;;;;;;;1.92;0.68;;;;;;;;;;5263414;28;20527;-71
2023/03/21 15:18:16;;;;;;;3.13;0.75;;;;;;;;;;5262233;28;20104;-70
2023/03/21 15:20:49;;;;;;;3.63;0.82;;;;;;;;;;5261295;28;20379;-71